createdAt,value
2023-01-22T00:01:20.001Z,103333.19
2023-01-22T00:03:49.278Z,103327.03
2023-01-22T00:06:16.605Z,103328.00
2023-01-22T00:08:43.721Z,103323.31
2023-01-22T00:11:12.044Z,103327.41
2023-01-22T00:13:39.637Z,103327.16
2023-01-22T00:16:07.581Z,103328.19
2023-01-22T00:18:35.140Z,103324.72
2023-01-22T00:21:02.125Z,103325.34
2023-01-22T00:23:29.143Z,103324.50
2023-01-22T00:26:15.643Z,103316.88
2023-01-22T00:28:47.578Z,103320.88
2023-01-22T00:31:16.969Z,103310.50
2023-01-22T00:33:45.793Z,103315.66
2023-01-22T00:36:19.251Z,103317.06
2023-01-22T00:38:46.880Z,103311.69
2023-01-22T00:41:15.676Z,103301.97
2023-01-22T00:43:42.827Z,103307.41
2023-01-22T00:46:13.335Z,103316.47
2023-01-22T00:48:40.783Z,103313.53
2023-01-22T00:51:08.863Z,103311.81
2023-01-22T00:53:41.279Z,103319.81
2023-01-22T00:56:08.356Z,103310.53
2023-01-22T00:58:35.438Z,103308.38
2023-01-22T01:01:02.888Z,103311.69
2023-01-22T01:03:31.559Z,103312.47
2023-01-22T01:06:09.035Z,103307.16
2023-01-22T01:08:40.585Z,103305.97
2023-01-22T01:11:13.069Z,103302.22
2023-01-22T01:13:43.172Z,103298.06
2023-01-22T01:16:17.908Z,103294.91
2023-01-22T01:18:45.489Z,103302.47
2023-01-22T01:21:12.860Z,103294.69
2023-01-22T01:23:40.336Z,103305.72
2023-01-22T01:26:13.053Z,103300.16
2023-01-22T01:28:41.557Z,103299.38
2023-01-22T01:31:13.118Z,103296.78
2023-01-22T01:33:41.047Z,103298.06
2023-01-22T01:36:16.618Z,103290.78
2023-01-22T01:38:44.471Z,103290.25
2023-01-22T01:41:22.411Z,103293.41
2023-01-22T01:44:23.587Z,103293.78
2023-01-22T01:47:01.278Z,103279.78
2023-01-22T01:49:47.622Z,103289.09
2023-01-22T01:52:16.380Z,103283.25
2023-01-22T01:54:49.323Z,103279.63
2023-01-22T01:57:22.315Z,103278.38
2023-01-22T01:59:51.902Z,103279.16
2023-01-22T02:02:22.772Z,103275.22
2023-01-22T02:04:50.906Z,103262.28
2023-01-22T02:07:19.357Z,103265.72
2023-01-22T02:09:46.962Z,103260.13
2023-01-22T02:12:13.943Z,103264.81
2023-01-22T02:14:44.581Z,103262.72
2023-01-22T02:17:20.356Z,103260.72
2023-01-22T02:19:47.894Z,103260.00
2023-01-22T02:22:20.009Z,103260.59
2023-01-22T02:24:47.334Z,103245.56
2023-01-22T02:27:14.424Z,103252.53
2023-01-22T02:29:41.752Z,103245.78
2023-01-22T02:32:08.857Z,103249.81
2023-01-22T02:34:35.907Z,103252.53
2023-01-22T02:37:02.894Z,103244.75
2023-01-22T02:39:30.624Z,103235.31
2023-01-22T02:41:58.495Z,103235.97
2023-01-22T02:44:25.469Z,103232.84
2023-01-22T02:46:52.439Z,103238.31
2023-01-22T02:49:19.484Z,103239.59
2023-01-22T02:51:46.554Z,103233.63
2023-01-22T02:54:13.574Z,103231.16
2023-01-22T02:56:40.732Z,103229.44
2023-01-22T02:59:07.675Z,103226.69
2023-01-22T03:01:34.723Z,103231.75
2023-01-22T03:04:11.454Z,103217.44
2023-01-22T03:06:42.625Z,103221.38
2023-01-22T03:09:12.255Z,103217.75
2023-01-22T03:11:41.966Z,103217.19
2023-01-22T03:14:27.673Z,103210.47
2023-01-22T03:17:13.803Z,103213.84
2023-01-22T03:19:59.673Z,103210.22
2023-01-22T03:22:26.951Z,103207.22
2023-01-22T03:24:55.097Z,103200.72
2023-01-22T03:27:25.531Z,103210.59
2023-01-22T03:29:52.546Z,103203.72
2023-01-22T03:32:20.369Z,103197.09
2023-01-22T03:34:47.556Z,103196.72
2023-01-22T03:37:14.608Z,103189.06
2023-01-22T03:39:42.242Z,103184.50
2023-01-22T03:42:09.287Z,103182.28
2023-01-22T03:44:36.233Z,103173.59
2023-01-22T03:47:03.391Z,103183.84
2023-01-22T03:49:30.365Z,103186.84
2023-01-22T03:51:57.686Z,103173.66
2023-01-22T03:54:24.799Z,103174.41
2023-01-22T03:56:51.817Z,103179.13
2023-01-22T03:59:18.891Z,103183.53
2023-01-22T04:01:45.899Z,103173.66
2023-01-22T04:04:12.879Z,103175.75
2023-01-22T04:06:39.928Z,103175.09
2023-01-22T04:09:06.929Z,103182.50
2023-01-22T04:11:33.911Z,103163.53
2023-01-22T04:14:00.999Z,103162.47
2023-01-22T04:16:28.050Z,103150.25
2023-01-22T04:18:55.019Z,103154.53
2023-01-22T04:21:22.029Z,103147.13
2023-01-22T04:23:49.038Z,103151.94
2023-01-22T04:26:15.996Z,103145.06
2023-01-22T04:28:42.985Z,103150.50
2023-01-22T04:31:10.438Z,103135.59
2023-01-22T04:33:37.471Z,103148.06
2023-01-22T04:36:04.721Z,103152.59
2023-01-22T04:38:31.790Z,103151.22
2023-01-22T04:40:58.824Z,103155.19
2023-01-22T04:43:25.781Z,103161.81
2023-01-22T04:45:52.803Z,103171.53
2023-01-22T04:48:19.766Z,103160.63
2023-01-22T04:50:46.737Z,103169.84
2023-01-22T04:53:14.022Z,103168.41
2023-01-22T04:55:44.286Z,103178.78
2023-01-22T04:58:11.284Z,103176.19
2023-01-22T05:00:38.346Z,103186.44
2023-01-22T05:03:05.924Z,103192.78
2023-01-22T05:05:34.144Z,103196.28
2023-01-22T05:08:01.598Z,103190.47
2023-01-22T05:10:28.860Z,103188.41
2023-01-22T05:12:56.376Z,103188.13
2023-01-22T05:15:28.719Z,103186.19
2023-01-22T05:17:55.807Z,103198.13
2023-01-22T05:20:22.937Z,103181.31
2023-01-22T05:22:50.143Z,103198.41
2023-01-22T05:25:17.543Z,103193.47
2023-01-22T05:27:44.696Z,103194.13
2023-01-22T05:30:12.744Z,103194.75
2023-01-22T05:32:39.776Z,103198.72
2023-01-22T05:35:06.903Z,103199.63
2023-01-22T05:37:34.134Z,103201.25
2023-01-22T05:40:01.901Z,103198.63
2023-01-22T05:42:28.949Z,103196.88
2023-01-22T05:44:56.052Z,103190.22
2023-01-22T05:47:23.002Z,103202.53
2023-01-22T05:49:49.937Z,103209.63
2023-01-22T05:52:17.062Z,103205.94
2023-01-22T05:54:44.021Z,103210.97
2023-01-22T05:57:10.991Z,103222.56
2023-01-22T05:59:38.028Z,103225.00
2023-01-22T06:02:05.110Z,103214.47
2023-01-22T06:04:32.118Z,103223.41
2023-01-22T06:06:59.163Z,103214.38
2023-01-22T06:09:26.202Z,103212.78
2023-01-22T06:11:53.210Z,103213.06
2023-01-22T06:14:20.180Z,103208.13
2023-01-22T06:16:47.277Z,103217.22
2023-01-22T06:19:14.330Z,103214.75
2023-01-22T06:21:43.630Z,103214.38
2023-01-22T06:24:11.139Z,103211.47
2023-01-22T06:26:38.378Z,103212.78
2023-01-22T06:29:05.542Z,103220.06
2023-01-22T06:31:32.907Z,103204.50
2023-01-22T06:34:00.056Z,103209.94
2023-01-22T06:36:27.359Z,103209.94
2023-01-22T06:38:54.413Z,103218.63
2023-01-22T06:41:21.471Z,103212.81
2023-01-22T06:43:48.645Z,103217.31
2023-01-22T06:46:15.789Z,103217.59
2023-01-22T06:48:43.758Z,103218.22
2023-01-22T06:51:11.218Z,103216.69
2023-01-22T06:53:38.901Z,103227.59
2023-01-22T06:56:06.297Z,103224.50
2023-01-22T06:58:33.161Z,103229.16
2023-01-22T07:01:01.347Z,103219.31
2023-01-22T07:03:28.629Z,103234.50
2023-01-22T07:06:00.635Z,103225.50
2023-01-22T07:08:28.864Z,103223.06
2023-01-22T07:10:55.709Z,103225.13
2023-01-22T07:13:22.690Z,103219.63
2023-01-22T07:15:49.699Z,103234.16
2023-01-22T07:18:19.719Z,103240.59
2023-01-22T07:21:13.274Z,103228.19
2023-01-22T07:23:41.750Z,103227.53
2023-01-22T07:26:08.676Z,103231.50
2023-01-22T07:28:35.553Z,103231.75
2023-01-22T07:31:09.081Z,103233.84
2023-01-22T07:33:36.029Z,103234.34
2023-01-22T07:36:06.336Z,103229.34
2023-01-22T07:38:33.215Z,103241.16
2023-01-22T07:41:13.942Z,103229.44
2023-01-22T07:43:49.391Z,103239.69
2023-01-22T07:46:16.640Z,103244.94
2023-01-22T07:48:45.736Z,103248.97
2023-01-22T07:51:12.912Z,103242.69
2023-01-22T07:53:40.246Z,103247.88
2023-01-22T07:56:07.558Z,103249.06
2023-01-22T07:58:34.496Z,103243.91
2023-01-22T08:01:07.500Z,103250.00
2023-01-22T08:03:38.278Z,103258.25
2023-01-22T08:06:15.877Z,103258.03
2023-01-22T08:08:42.812Z,103261.16
2023-01-22T08:11:09.721Z,103264.88
2023-01-22T08:13:36.676Z,103272.84
2023-01-22T08:16:04.027Z,103272.84
2023-01-22T08:18:31.044Z,103279.31
2023-01-22T08:21:01.532Z,103277.50
2023-01-22T08:23:28.647Z,103278.69
2023-01-22T08:26:03.981Z,103282.44
2023-01-22T08:28:31.652Z,103280.38
2023-01-22T08:31:03.704Z,103277.41
2023-01-22T08:33:32.450Z,103276.75
2023-01-22T08:36:06.372Z,103276.38
2023-01-22T08:38:33.223Z,103272.34
2023-01-22T08:41:00.789Z,103274.09
2023-01-22T08:43:27.708Z,103275.34
2023-01-22T08:45:54.657Z,103278.56
2023-01-22T08:48:21.631Z,103269.88
2023-01-22T08:50:48.521Z,103279.03
2023-01-22T08:53:15.458Z,103268.59
2023-01-22T08:55:48.201Z,103272.00
2023-01-22T08:58:15.197Z,103272.91
2023-01-22T09:00:42.076Z,103280.41
2023-01-22T09:03:09.122Z,103283.56
2023-01-22T09:05:38.960Z,103282.53
2023-01-22T09:08:07.703Z,103282.22
2023-01-22T09:10:34.679Z,103288.50
2023-01-22T09:13:01.920Z,103291.38
2023-01-22T09:15:28.858Z,103292.66
2023-01-22T09:17:55.942Z,103296.28
2023-01-22T09:20:22.917Z,103302.66
2023-01-22T09:22:49.831Z,103305.59
2023-01-22T09:25:16.889Z,103296.69
2023-01-22T09:27:43.931Z,103284.75
2023-01-22T09:30:11.343Z,103285.78
2023-01-22T09:32:38.261Z,103296.69
2023-01-22T09:35:05.425Z,103288.78
2023-01-22T09:37:32.316Z,103291.38
2023-01-22T09:39:59.217Z,103285.28
2023-01-22T09:42:28.929Z,103287.88
2023-01-22T09:45:00.095Z,103295.16
2023-01-22T09:47:40.834Z,103295.53
2023-01-22T09:50:20.110Z,103294.75
2023-01-22T09:52:47.655Z,103309.44
2023-01-22T09:55:18.244Z,103304.63
2023-01-22T09:57:46.967Z,103305.03
2023-01-22T10:00:27.221Z,103303.06
2023-01-22T10:03:01.924Z,103304.50
2023-01-22T10:05:39.261Z,103304.38
2023-01-22T10:08:18.472Z,103306.59
2023-01-22T10:10:45.760Z,103305.06
2023-01-22T10:13:28.153Z,103302.81
2023-01-22T10:15:56.179Z,103304.13
2023-01-22T10:18:39.887Z,103304.75
2023-01-22T10:21:21.575Z,103304.38
2023-01-22T10:23:50.212Z,103302.94
2023-01-22T10:26:25.282Z,103311.03
2023-01-22T10:28:58.322Z,103300.47
2023-01-22T10:31:30.107Z,103309.56
2023-01-22T10:34:02.974Z,103308.31
2023-01-22T10:36:31.265Z,103305.72
2023-01-22T10:39:13.666Z,103312.72
2023-01-22T10:41:41.482Z,103309.47
2023-01-22T10:44:11.085Z,103303.50
2023-01-22T10:46:38.001Z,103300.91
2023-01-22T10:49:06.418Z,103293.50
2023-01-22T10:51:42.406Z,103300.13
2023-01-22T10:54:34.531Z,103298.97
2023-01-22T10:57:21.375Z,103301.16
2023-01-22T10:59:52.691Z,103300.78
2023-01-22T11:02:25.809Z,103294.81
2023-01-22T11:04:53.426Z,103289.56
2023-01-22T11:07:27.403Z,103292.44
2023-01-22T11:10:16.069Z,103290.75
2023-01-22T11:12:50.145Z,103300.41
2023-01-22T11:15:22.713Z,103300.25
2023-01-22T11:17:55.816Z,103302.34
2023-01-22T11:20:25.073Z,103288.56
2023-01-22T11:23:19.404Z,103289.59
2023-01-22T11:25:49.675Z,103279.09
2023-01-22T11:28:48.939Z,103289.59
2023-01-22T11:31:20.865Z,103290.66
2023-01-22T11:34:52.587Z,103286.34
2023-01-22T11:37:50.523Z,103279.72
2023-01-22T11:40:34.473Z,103266.09
2023-01-22T11:43:29.496Z,103278.44
2023-01-22T11:46:29.004Z,103275.31
2023-01-22T11:49:03.268Z,103271.28
2023-01-22T11:51:34.817Z,103268.28
2023-01-22T11:54:32.963Z,103269.97
2023-01-22T11:57:10.536Z,103262.56
2023-01-22T11:59:59.065Z,103267.50
2023-01-22T12:02:37.746Z,103259.31
2023-01-22T12:05:16.976Z,103256.47
2023-01-22T12:08:01.812Z,103244.00
2023-01-22T12:11:13.113Z,103237.75
2023-01-22T12:14:10.785Z,103239.19
2023-01-22T12:16:54.565Z,103235.56
2023-01-22T12:19:40.753Z,103236.72
2023-01-22T12:22:46.214Z,103238.13
2023-01-22T12:25:37.042Z,103239.03
2023-01-22T12:28:15.907Z,103242.03
2023-01-22T12:31:01.315Z,103245.91
2023-01-22T12:33:31.028Z,103246.34
2023-01-22T12:36:01.143Z,103249.44
2023-01-22T12:38:46.257Z,103235.66
2023-01-22T12:41:41.283Z,103241.44
2023-01-22T12:44:24.271Z,103248.56
2023-01-22T12:47:04.653Z,103253.22
2023-01-22T12:49:31.611Z,103253.34
2023-01-22T12:52:01.211Z,103251.16
2023-01-22T12:54:32.441Z,103249.31
2023-01-22T12:57:14.559Z,103244.00
2023-01-22T12:59:47.055Z,103243.88
2023-01-22T13:02:38.992Z,103238.94
2023-01-22T13:05:22.528Z,103235.28
2023-01-22T13:07:50.207Z,103241.00
2023-01-22T13:10:20.217Z,103234.41
2023-01-22T13:12:55.668Z,103234.88
2023-01-22T13:15:27.125Z,103235.78
2023-01-22T13:18:07.008Z,103241.28
2023-01-22T13:20:37.279Z,103237.00
2023-01-22T13:23:06.257Z,103232.72
2023-01-22T13:25:33.742Z,103237.91
2023-01-22T13:28:01.940Z,103240.75
2023-01-22T13:30:31.088Z,103239.31
2023-01-22T13:33:06.824Z,103237.50
2023-01-22T13:35:35.977Z,103244.91
2023-01-22T13:38:03.035Z,103251.69
2023-01-22T13:40:37.027Z,103245.84
2023-01-22T13:43:15.942Z,103245.06
2023-01-22T13:45:42.872Z,103247.78
2023-01-22T13:48:15.536Z,103253.50
2023-01-22T13:50:45.641Z,103250.00
2023-01-22T13:53:28.114Z,103246.09
2023-01-22T13:55:55.658Z,103249.22
2023-01-22T13:58:48.289Z,103261.56
2023-01-22T14:01:36.758Z,103259.47
2023-01-22T14:04:08.100Z,103254.00
2023-01-22T14:06:47.296Z,103262.59
2023-01-22T14:09:24.614Z,103256.63
2023-01-22T14:11:51.697Z,103253.88
2023-01-22T14:14:19.790Z,103262.59
2023-01-22T14:16:47.058Z,103257.91
2023-01-22T14:19:14.067Z,103259.47
2023-01-22T14:21:41.515Z,103259.47
2023-01-22T14:24:08.642Z,103259.63
2023-01-22T14:26:35.719Z,103251.28
2023-01-22T14:29:02.726Z,103258.97
2023-01-22T14:31:29.700Z,103267.78
2023-01-22T14:33:56.648Z,103270.53
2023-01-22T14:36:23.539Z,103268.44
2023-01-22T14:38:53.551Z,103272.75
2023-01-22T14:41:20.467Z,103271.69
2023-01-22T14:43:47.417Z,103280.28
2023-01-22T14:46:14.441Z,103285.22
2023-01-22T14:48:41.392Z,103280.13
2023-01-22T14:51:12.521Z,103281.06
2023-01-22T14:53:40.136Z,103288.84
2023-01-22T14:56:07.506Z,103292.22
2023-01-22T14:58:34.395Z,103291.41
2023-01-22T15:01:01.389Z,103291.94
2023-01-22T15:03:31.323Z,103296.91
2023-01-22T15:05:58.261Z,103291.72
2023-01-22T15:08:25.192Z,103290.13
2023-01-22T15:10:52.055Z,103290.41
2023-01-22T15:13:18.960Z,103304.19
2023-01-22T15:15:46.047Z,103295.09
2023-01-22T15:18:12.999Z,103292.50
2023-01-22T15:20:39.887Z,103292.50
2023-01-22T15:23:06.799Z,103288.69
2023-01-22T15:25:46.104Z,103285.34
2023-01-22T15:28:12.973Z,103287.00
2023-01-22T15:30:49.052Z,103288.06
2023-01-22T15:33:16.101Z,103278.97
2023-01-22T15:35:43.150Z,103286.91
2023-01-22T15:38:10.079Z,103289.59
2023-01-22T15:40:47.349Z,103291.28
2023-01-22T15:43:14.191Z,103293.13
2023-01-22T15:45:44.151Z,103298.88
2023-01-22T15:48:13.642Z,103305.75
2023-01-22T15:50:42.915Z,103302.75
2023-01-22T15:53:12.688Z,103303.69
2023-01-22T15:55:49.605Z,103287.91
2023-01-22T15:58:16.560Z,103292.19
2023-01-22T16:00:43.527Z,103290.25
2023-01-22T16:03:11.968Z,103296.41
2023-01-22T16:05:41.635Z,103292.97
2023-01-22T16:08:08.462Z,103291.41
2023-01-22T16:10:41.347Z,103287.56
2023-01-22T16:13:10.680Z,103289.88
2023-01-22T16:15:50.281Z,103288.59
2023-01-22T16:18:17.148Z,103285.31
2023-01-22T16:20:48.403Z,103281.31
2023-01-22T16:23:15.260Z,103281.97
2023-01-22T16:25:52.367Z,103287.78
2023-01-22T16:28:19.196Z,103287.44
2023-01-22T16:30:46.199Z,103294.06
2023-01-22T16:33:21.939Z,103295.88
2023-01-22T16:35:48.907Z,103294.56
2023-01-22T16:38:15.786Z,103295.84
2023-01-22T16:40:42.742Z,103293.41
2023-01-22T16:43:09.621Z,103296.91
2023-01-22T16:45:36.568Z,103309.63
2023-01-22T16:48:03.570Z,103307.31
2023-01-22T16:50:30.509Z,103316.66
2023-01-22T16:52:57.427Z,103312.75
2023-01-22T16:55:24.604Z,103314.31
2023-01-22T16:57:52.496Z,103316.41
2023-01-22T17:00:20.316Z,103322.53
2023-01-22T17:02:47.400Z,103320.31
2023-01-22T17:05:14.300Z,103326.41
2023-01-22T17:07:41.194Z,103326.28
2023-01-22T17:10:08.711Z,103316.78
2023-01-22T17:12:35.721Z,103328.88
2023-01-22T17:15:02.632Z,103335.78
2023-01-22T17:17:29.489Z,103328.38
2023-01-22T17:19:56.369Z,103332.25
2023-01-22T17:22:24.201Z,103327.72
2023-01-22T17:24:52.607Z,103329.13
2023-01-22T17:27:20.229Z,103325.13
2023-01-22T17:29:47.202Z,103328.09
2023-01-22T17:32:14.078Z,103331.75
2023-01-22T17:34:41.976Z,103323.69
2023-01-22T17:37:13.603Z,103339.66
2023-01-22T17:39:42.829Z,103340.19
2023-01-22T17:42:09.752Z,103334.34
2023-01-22T17:44:36.663Z,103329.69
2023-01-22T17:47:05.811Z,103333.94
2023-01-22T17:49:33.380Z,103328.75
2023-01-22T17:52:00.454Z,103332.25
2023-01-22T17:54:27.512Z,103329.66
2023-01-22T17:56:54.666Z,103323.44
2023-01-22T17:59:22.601Z,103336.16
2023-01-22T18:01:50.294Z,103330.81
2023-01-22T18:04:17.274Z,103328.34
2023-01-22T18:06:44.288Z,103330.19
2023-01-22T18:09:11.841Z,103340.59
2023-01-22T18:11:39.367Z,103345.53
2023-01-22T18:14:08.542Z,103345.53
2023-01-22T18:16:37.720Z,103342.94
2023-01-22T18:19:07.286Z,103346.59
2023-01-22T18:21:35.496Z,103351.00
2023-01-22T18:24:03.770Z,103346.19
2023-01-22T18:26:30.875Z,103348.66
2023-01-22T18:28:59.187Z,103344.63
2023-01-22T18:31:28.403Z,103346.56
2023-01-22T18:33:57.601Z,103356.84
2023-01-22T18:36:26.395Z,103353.19
2023-01-22T18:38:53.659Z,103353.47
2023-01-22T18:41:25.132Z,103347.63
2023-01-22T18:44:02.137Z,103353.59
2023-01-22T18:46:33.169Z,103355.16
2023-01-22T18:49:02.829Z,103351.91
2023-01-22T18:51:29.980Z,103367.38
2023-01-22T18:53:57.631Z,103368.69
2023-01-22T18:56:25.726Z,103366.09
2023-01-22T18:58:56.832Z,103358.28
2023-01-22T19:01:26.822Z,103358.16
2023-01-22T19:03:55.845Z,103353.75
2023-01-22T19:06:27.781Z,103353.88
2023-01-22T19:09:04.042Z,103353.34
2023-01-22T19:11:32.756Z,103351.00
2023-01-22T19:14:00.313Z,103353.88
2023-01-22T19:16:27.621Z,103346.47
2023-01-22T19:19:03.930Z,103358.28
2023-01-22T19:21:30.995Z,103362.97
2023-01-22T19:24:00.144Z,103356.47
2023-01-22T19:26:31.973Z,103364.16
2023-01-22T19:29:04.505Z,103365.56
2023-01-22T19:31:34.257Z,103365.44
2023-01-22T19:34:02.420Z,103361.13
2023-01-22T19:36:31.224Z,103357.75
2023-01-22T19:38:59.887Z,103357.63
2023-01-22T19:41:28.125Z,103359.44
2023-01-22T19:43:57.191Z,103353.97
2023-01-22T19:46:26.068Z,103359.31
2023-01-22T19:48:53.661Z,103361.13
2023-01-22T19:51:22.909Z,103362.69
2023-01-22T19:53:49.970Z,103363.50
2023-01-22T19:56:19.684Z,103360.63
2023-01-22T19:58:48.089Z,103363.72
2023-01-22T20:01:15.678Z,103368.03
2023-01-22T20:03:42.933Z,103369.06
2023-01-22T20:06:12.039Z,103377.94
2023-01-22T20:08:39.063Z,103380.25
2023-01-22T20:11:07.283Z,103372.22
2023-01-22T20:13:34.470Z,103374.00
2023-01-22T20:16:01.543Z,103390.00
2023-01-22T20:18:28.712Z,103386.75
2023-01-22T20:20:56.779Z,103389.59
2023-01-22T20:23:24.599Z,103395.47
2023-01-22T20:25:51.775Z,103397.16
2023-01-22T20:28:19.262Z,103394.41
2023-01-22T20:31:00.237Z,103398.97
2023-01-22T20:33:28.112Z,103397.00
2023-01-22T20:36:00.265Z,103400.66
2023-01-22T20:38:27.973Z,103399.22
2023-01-22T20:40:55.457Z,103398.19
2023-01-22T20:43:22.537Z,103396.22
2023-01-22T20:46:00.859Z,103401.31
2023-01-22T20:48:29.520Z,103391.16
2023-01-22T20:50:56.764Z,103402.47
2023-01-22T20:53:24.475Z,103394.16
2023-01-22T20:56:02.875Z,103395.19
2023-01-22T20:58:30.010Z,103399.75
2023-01-22T21:01:04.507Z,103405.06
2023-01-22T21:03:31.924Z,103400.41
2023-01-22T21:06:05.851Z,103408.84
2023-01-22T21:08:33.168Z,103407.03
2023-01-22T21:11:04.440Z,103405.34
2023-01-22T21:13:31.370Z,103393.13
2023-01-22T21:16:05.636Z,103399.09
2023-01-22T21:18:32.536Z,103399.09
2023-01-22T21:20:59.438Z,103402.22
2023-01-22T21:23:26.317Z,103406.75
2023-01-22T21:25:53.227Z,103405.22
2023-01-22T21:28:20.332Z,103409.22
2023-01-22T21:30:47.320Z,103414.19
2023-01-22T21:33:14.262Z,103412.22
2023-01-22T21:35:47.364Z,103410.41
2023-01-22T21:38:14.529Z,103409.75
2023-01-22T21:40:41.441Z,103414.44
2023-01-22T21:43:31.608Z,103411.06
2023-01-22T21:46:17.575Z,103409.50
2023-01-22T21:48:44.630Z,103417.44
2023-01-22T21:51:11.533Z,103414.69
2023-01-22T21:53:38.436Z,103417.84
2023-01-22T21:56:05.759Z,103423.81
2023-01-22T21:58:32.683Z,103423.53
2023-01-22T22:01:09.352Z,103423.97
2023-01-22T22:03:36.336Z,103422.28
2023-01-22T22:06:03.409Z,103429.66
2023-01-22T22:08:30.245Z,103433.47
2023-01-22T22:10:57.560Z,103436.53
2023-01-22T22:13:24.465Z,103440.19
2023-01-22T22:15:51.333Z,103443.69
2023-01-22T22:18:18.311Z,103441.75
2023-01-22T22:20:45.221Z,103439.94
2023-01-22T22:23:12.128Z,103442.78
2023-01-22T22:25:39.006Z,103442.25
2023-01-22T22:28:05.925Z,103426.91
2023-01-22T22:30:34.509Z,103439.56
2023-01-22T22:33:01.477Z,103430.56
2023-01-22T22:35:28.498Z,103436.69
2023-01-22T22:37:55.386Z,103444.47
2023-01-22T22:40:22.286Z,103439.97
2023-01-22T22:42:49.376Z,103451.88
2023-01-22T22:45:17.081Z,103448.00
2023-01-22T22:47:43.953Z,103451.88
2023-01-22T22:50:11.115Z,103452.94
2023-01-22T22:52:38.115Z,103446.81
2023-01-22T22:55:05.573Z,103440.84
2023-01-22T22:57:32.479Z,103445.00
2023-01-22T22:59:59.737Z,103439.78
2023-01-22T23:02:26.628Z,103441.88
2023-01-22T23:04:53.500Z,103453.50
2023-01-22T23:07:20.380Z,103449.81
2023-01-22T23:09:47.278Z,103444.78
2023-01-22T23:12:14.142Z,103442.53
2023-01-22T23:14:41.025Z,103441.25
2023-01-22T23:17:07.953Z,103447.78
2023-01-22T23:19:34.925Z,103451.94
2023-01-22T23:22:01.816Z,103448.28
2023-01-22T23:24:28.868Z,103445.81
2023-01-22T23:26:56.045Z,103443.09
2023-01-22T23:29:24.253Z,103445.69
2023-01-22T23:31:51.364Z,103449.69
2023-01-22T23:34:20.992Z,103445.81
2023-01-22T23:36:49.066Z,103439.69
2023-01-22T23:39:18.994Z,103443.88
2023-01-22T23:41:46.191Z,103448.94
2023-01-22T23:44:13.207Z,103451.94
2023-01-22T23:46:40.712Z,103454.41
2023-01-22T23:49:07.675Z,103448.69
2023-01-22T23:51:34.561Z,103446.22
2023-01-22T23:54:01.574Z,103441.53
2023-01-22T23:56:31.973Z,103450.75
2023-01-22T23:58:59.545Z,103455.56
